createdAt,value
2022-10-02T00:00:16.272Z,98478.80
2022-10-02T00:03:15.103Z,98483.20
2022-10-02T00:05:45.477Z,98485.00
2022-10-02T00:08:18.138Z,98489.20
2022-10-02T00:10:57.564Z,98487.00
2022-10-02T00:13:58.460Z,98488.00
2022-10-02T00:16:37.586Z,98489.60
2022-10-02T00:19:04.583Z,98484.40
2022-10-02T00:22:01.116Z,98490.20
2022-10-02T00:24:54.752Z,98487.40
2022-10-02T00:27:33.893Z,98496.00
2022-10-02T00:30:00.672Z,98493.80
2022-10-02T00:32:55.176Z,98490.60
2022-10-02T00:35:37.087Z,98494.00
2022-10-02T00:38:21.521Z,98496.20
2022-10-02T00:40:57.757Z,98498.40
2022-10-02T00:43:45.362Z,98500.80
2022-10-02T00:46:49.724Z,98501.00
2022-10-02T00:49:49.846Z,98500.20
2022-10-02T00:52:26.803Z,98504.40
2022-10-02T00:55:09.856Z,98507.80
2022-10-02T00:58:22.806Z,98507.40
2022-10-02T01:01:20.660Z,98500.40
2022-10-02T01:03:55.930Z,98509.60
2022-10-02T01:06:24.168Z,98515.40
2022-10-02T01:08:53.872Z,98515.20
2022-10-02T01:11:23.758Z,98516.40
2022-10-02T01:13:50.165Z,98520.00
2022-10-02T01:16:17.405Z,98521.80
2022-10-02T01:18:45.537Z,98523.80
2022-10-02T01:21:42.437Z,98524.80
2022-10-02T01:24:18.010Z,98529.80
2022-10-02T01:26:44.430Z,98530.80
2022-10-02T01:29:11.022Z,98524.40
2022-10-02T01:31:37.504Z,98525.00
2022-10-02T01:34:03.991Z,98527.60
2022-10-02T01:36:30.431Z,98534.20
2022-10-02T01:38:56.865Z,98538.00
2022-10-02T01:41:23.812Z,98541.00
2022-10-02T01:43:52.376Z,98542.80
2022-10-02T01:46:43.502Z,98547.40
2022-10-02T01:49:48.988Z,98551.40
2022-10-02T01:53:03.205Z,98551.40
2022-10-02T01:55:55.684Z,98543.00
2022-10-02T01:58:29.448Z,98553.40
2022-10-02T02:01:22.086Z,98550.20
2022-10-02T02:03:54.835Z,98560.40
2022-10-02T02:06:28.171Z,98556.20
2022-10-02T02:09:09.236Z,98564.20
2022-10-02T02:11:39.881Z,98568.80
2022-10-02T02:14:25.450Z,98570.40
2022-10-02T02:16:56.093Z,98567.60
2022-10-02T02:19:27.356Z,98571.00
2022-10-02T02:22:00.249Z,98574.20
2022-10-02T02:24:57.377Z,98576.20
2022-10-02T02:27:30.235Z,98572.60
2022-10-02T02:29:59.966Z,98574.80
2022-10-02T02:32:28.806Z,98577.80
2022-10-02T02:35:03.904Z,98577.80
2022-10-02T02:37:32.726Z,98583.60
2022-10-02T02:40:03.330Z,98581.60
2022-10-02T02:42:32.041Z,98579.40
2022-10-02T02:45:11.718Z,98584.20
2022-10-02T02:47:42.751Z,98581.60
2022-10-02T02:50:36.842Z,98585.00
2022-10-02T02:53:13.651Z,98590.40
2022-10-02T02:56:16.925Z,98590.40
2022-10-02T02:59:02.711Z,98598.20
2022-10-02T03:01:30.027Z,98596.40
2022-10-02T03:04:04.816Z,98598.60
2022-10-02T03:06:47.341Z,98607.00
2022-10-02T03:09:20.495Z,98603.40
2022-10-02T03:12:08.296Z,98609.80
2022-10-02T03:14:59.603Z,98611.80
2022-10-02T03:18:13.462Z,98612.60
2022-10-02T03:20:52.437Z,98613.80
2022-10-02T03:23:33.074Z,98613.40
2022-10-02T03:26:20.589Z,98613.80
2022-10-02T03:28:56.927Z,98614.60
2022-10-02T03:31:26.180Z,98613.80
2022-10-02T03:33:53.171Z,98616.00
2022-10-02T03:36:24.115Z,98611.60
2022-10-02T03:39:12.625Z,98611.40
2022-10-02T03:41:40.983Z,98620.00
2022-10-02T03:44:07.931Z,98617.60
2022-10-02T03:46:36.765Z,98621.80
2022-10-02T03:49:03.513Z,98620.00
2022-10-02T03:51:30.674Z,98616.40
2022-10-02T03:53:57.427Z,98622.00
2022-10-02T03:56:53.814Z,98621.00
2022-10-02T03:59:33.363Z,98626.20
2022-10-02T04:02:05.644Z,98624.00
2022-10-02T04:04:45.425Z,98631.00
2022-10-02T04:07:24.716Z,98625.00
2022-10-02T04:10:12.406Z,98628.00
2022-10-02T04:12:53.354Z,98638.00
2022-10-02T04:15:33.839Z,98640.40
2022-10-02T04:18:11.842Z,98638.20
2022-10-02T04:20:51.930Z,98644.60
2022-10-02T04:23:24.165Z,98645.40
2022-10-02T04:25:59.453Z,98644.20
2022-10-02T04:28:35.135Z,98655.20
2022-10-02T04:31:02.261Z,98655.00
2022-10-02T04:33:29.083Z,98655.00
2022-10-02T04:36:09.853Z,98663.40
2022-10-02T04:38:51.580Z,98666.40
2022-10-02T04:41:59.357Z,98667.80
2022-10-02T04:45:01.786Z,98672.20
2022-10-02T04:48:09.950Z,98672.80
2022-10-02T04:51:33.516Z,98675.80
2022-10-02T04:55:00.725Z,98689.80
2022-10-02T04:57:30.950Z,98694.40
2022-10-02T05:00:18.227Z,98694.00
2022-10-02T05:03:24.422Z,98701.00
2022-10-02T05:06:20.643Z,98704.60
2022-10-02T05:09:16.370Z,98711.60
2022-10-02T05:11:52.568Z,98708.00
2022-10-02T05:15:03.165Z,98708.00
2022-10-02T05:17:38.222Z,98711.80
2022-10-02T05:20:19.721Z,98716.40
2022-10-02T05:23:11.232Z,98725.20
2022-10-02T05:25:49.442Z,98727.40
2022-10-02T05:28:34.455Z,98727.40
2022-10-02T05:31:28.514Z,98731.80
2022-10-02T05:34:00.998Z,98733.00
2022-10-02T05:37:09.190Z,98737.60
2022-10-02T05:39:50.720Z,98740.00
2022-10-02T05:42:51.456Z,98744.00
2022-10-02T05:45:40.289Z,98746.20
2022-10-02T05:48:32.031Z,98746.40
2022-10-02T05:51:02.824Z,98751.60
2022-10-02T05:53:42.634Z,98751.80
2022-10-02T05:56:36.857Z,98755.40
2022-10-02T05:59:09.352Z,98764.60
2022-10-02T06:01:39.391Z,98762.80
2022-10-02T06:04:16.134Z,98758.20
2022-10-02T06:06:54.381Z,98761.20
2022-10-02T06:09:26.997Z,98767.60
2022-10-02T06:11:59.200Z,98773.80
2022-10-02T06:14:29.986Z,98776.60
2022-10-02T06:17:11.771Z,98782.60
2022-10-02T06:19:54.254Z,98785.60
2022-10-02T06:22:24.716Z,98782.40
2022-10-02T06:25:12.105Z,98781.00
2022-10-02T06:27:49.724Z,98780.60
2022-10-02T06:30:17.389Z,98785.00
2022-10-02T06:33:23.187Z,98789.80
2022-10-02T06:36:05.906Z,98789.80
2022-10-02T06:39:00.059Z,98789.00
2022-10-02T06:42:00.146Z,98788.80
2022-10-02T06:45:21.213Z,98800.80
2022-10-02T06:48:06.776Z,98796.00
2022-10-02T06:50:41.932Z,98802.00
2022-10-02T06:53:36.498Z,98802.00
2022-10-02T06:56:27.126Z,98800.60
2022-10-02T06:59:25.661Z,98800.20
2022-10-02T07:02:47.898Z,98799.20
2022-10-02T07:05:35.604Z,98806.60
2022-10-02T07:08:16.022Z,98809.00
2022-10-02T07:10:55.238Z,98812.40
2022-10-02T07:13:35.033Z,98817.80
2022-10-02T07:16:17.140Z,98818.20
2022-10-02T07:18:57.272Z,98821.80
2022-10-02T07:21:55.348Z,98822.60
2022-10-02T07:24:52.431Z,98824.20
2022-10-02T07:27:33.584Z,98827.80
2022-10-02T07:30:06.067Z,98825.40
2022-10-02T07:32:46.849Z,98830.00
2022-10-02T07:35:22.260Z,98825.60
2022-10-02T07:38:12.962Z,98827.60
2022-10-02T07:41:00.701Z,98825.20
2022-10-02T07:43:56.053Z,98832.20
2022-10-02T07:46:41.892Z,98827.40
2022-10-02T07:50:00.040Z,98832.20
2022-10-02T07:52:38.843Z,98829.20
2022-10-02T07:55:19.478Z,98830.20
2022-10-02T07:58:10.731Z,98834.00
2022-10-02T08:00:41.592Z,98832.80
2022-10-02T08:03:14.638Z,98833.80
2022-10-02T08:05:44.095Z,98837.60
2022-10-02T08:08:29.510Z,98838.80
2022-10-02T08:11:16.697Z,98839.00
2022-10-02T08:13:49.074Z,98840.00
2022-10-02T08:16:15.998Z,98840.00
2022-10-02T08:18:54.280Z,98835.00
2022-10-02T08:21:21.329Z,98839.80
2022-10-02T08:23:59.204Z,98841.60
2022-10-02T08:27:04.673Z,98839.40
2022-10-02T08:29:50.130Z,98838.80
2022-10-02T08:32:16.560Z,98837.20
2022-10-02T08:34:43.543Z,98834.80
2022-10-02T08:37:42.005Z,98837.40
2022-10-02T08:40:55.434Z,98838.40
2022-10-02T08:44:02.361Z,98832.00
2022-10-02T08:46:47.366Z,98828.80
2022-10-02T08:50:01.497Z,98831.80
2022-10-02T08:52:44.787Z,98826.80
2022-10-02T08:55:36.949Z,98829.20
2022-10-02T08:58:26.692Z,98828.40
2022-10-02T09:01:04.287Z,98831.20
2022-10-02T09:03:45.187Z,98827.20
2022-10-02T09:06:41.458Z,98827.20
2022-10-02T09:09:48.573Z,98819.80
2022-10-02T09:12:34.700Z,98825.40
2022-10-02T09:15:25.559Z,98823.00
2022-10-02T09:18:27.250Z,98819.40
2022-10-02T09:21:19.602Z,98815.60
2022-10-02T09:24:07.922Z,98822.00
2022-10-02T09:27:19.441Z,98808.80
2022-10-02T09:30:10.277Z,98805.00
2022-10-02T09:33:26.840Z,98807.00
2022-10-02T09:36:51.177Z,98813.60
2022-10-02T09:39:48.722Z,98818.20
2022-10-02T09:42:58.351Z,98811.20
2022-10-02T09:45:46.304Z,98810.60
2022-10-02T09:49:08.310Z,98816.40
2022-10-02T09:51:45.837Z,98817.20
2022-10-02T09:54:35.828Z,98812.00
2022-10-02T09:57:17.021Z,98811.00
2022-10-02T10:00:17.734Z,98816.80
2022-10-02T10:03:12.850Z,98817.00
2022-10-02T10:06:01.044Z,98818.80
2022-10-02T10:08:43.649Z,98820.00
2022-10-02T10:11:46.805Z,98824.60
2022-10-02T10:15:09.303Z,98828.40
2022-10-02T10:18:13.942Z,98822.40
2022-10-02T10:20:59.149Z,98820.40
2022-10-02T10:23:40.681Z,98816.20
2022-10-02T10:27:00.833Z,98807.40
2022-10-02T10:29:40.507Z,98805.60
2022-10-02T10:32:31.557Z,98803.00
2022-10-02T10:35:29.333Z,98804.00
2022-10-02T10:38:51.604Z,98795.20
2022-10-02T10:41:48.388Z,98792.60
2022-10-02T10:44:49.470Z,98802.60
2022-10-02T10:47:40.500Z,98804.20
2022-10-02T10:50:35.639Z,98799.00
2022-10-02T10:53:17.981Z,98802.00
2022-10-02T10:56:18.737Z,98799.80
2022-10-02T10:59:16.032Z,98798.60
2022-10-02T11:02:13.324Z,98786.80
2022-10-02T11:05:07.494Z,98788.40
2022-10-02T11:07:47.370Z,98792.60
2022-10-02T11:10:38.076Z,98790.20
2022-10-02T11:13:17.681Z,98789.00
2022-10-02T11:16:12.558Z,98785.40
2022-10-02T11:19:32.608Z,98789.60
2022-10-02T11:22:12.039Z,98786.00
2022-10-02T11:25:15.103Z,98779.80
2022-10-02T11:28:12.087Z,98780.80
2022-10-02T11:30:45.626Z,98785.00
2022-10-02T11:33:45.998Z,98781.60
2022-10-02T11:36:48.236Z,98779.80
2022-10-02T11:39:44.603Z,98775.00
2022-10-02T11:42:34.698Z,98772.20
2022-10-02T11:45:15.854Z,98775.00
2022-10-02T11:48:29.181Z,98764.20
2022-10-02T11:51:09.759Z,98764.00
2022-10-02T11:54:17.998Z,98756.20
2022-10-02T11:57:01.858Z,98744.20
2022-10-02T11:59:46.991Z,98741.80
2022-10-02T12:02:25.502Z,98740.80
2022-10-02T12:05:21.682Z,98737.60
2022-10-02T12:08:14.345Z,98739.40
2022-10-02T12:10:57.799Z,98754.00
2022-10-02T12:13:51.990Z,98743.60
2022-10-02T12:16:58.998Z,98740.40
2022-10-02T12:19:38.997Z,98737.60
2022-10-02T12:22:42.960Z,98739.00
2022-10-02T12:25:52.237Z,98739.00
2022-10-02T12:28:31.881Z,98734.60
2022-10-02T12:31:22.231Z,98739.80
2022-10-02T12:34:03.810Z,98737.00
2022-10-02T12:36:49.024Z,98743.40
2022-10-02T12:39:46.036Z,98732.60
2022-10-02T12:42:30.767Z,98728.80
2022-10-02T12:45:30.809Z,98730.40
2022-10-02T12:48:15.709Z,98733.20
2022-10-02T12:51:08.310Z,98735.40
2022-10-02T12:53:54.876Z,98730.00
2022-10-02T12:56:35.037Z,98739.20
2022-10-02T12:59:41.082Z,98736.80
2022-10-02T13:03:00.785Z,98740.60
2022-10-02T13:05:56.695Z,98742.00
2022-10-02T13:08:52.184Z,98740.80
2022-10-02T13:11:33.175Z,98736.60
2022-10-02T13:15:01.362Z,98737.40
2022-10-02T13:17:46.498Z,98737.40
2022-10-02T13:20:48.404Z,98731.60
2022-10-02T13:23:41.900Z,98733.00
2022-10-02T13:26:41.909Z,98726.60
2022-10-02T13:29:33.969Z,98721.80
2022-10-02T13:32:32.180Z,98712.60
2022-10-02T13:35:28.470Z,98710.60
2022-10-02T13:38:23.752Z,98710.60
2022-10-02T13:41:08.905Z,98697.80
2022-10-02T13:44:05.205Z,98702.60
2022-10-02T13:47:01.172Z,98699.00
2022-10-02T13:50:12.218Z,98703.00
2022-10-02T13:53:11.124Z,98709.40
2022-10-02T13:56:06.943Z,98701.80
2022-10-02T13:59:33.860Z,98693.60
2022-10-02T14:02:38.993Z,98694.20
2022-10-02T14:05:37.867Z,98695.20
2022-10-02T14:08:13.230Z,98689.80
2022-10-02T14:10:55.454Z,98694.60
2022-10-02T14:13:33.997Z,98686.40
2022-10-02T14:16:29.867Z,98682.00
2022-10-02T14:19:13.500Z,98684.20
2022-10-02T14:22:01.880Z,98688.00
2022-10-02T14:25:00.149Z,98681.40
2022-10-02T14:28:04.810Z,98681.80
2022-10-02T14:30:54.457Z,98689.00
2022-10-02T14:33:48.290Z,98686.60
2022-10-02T14:36:26.515Z,98689.00
2022-10-02T14:39:31.649Z,98684.20
2022-10-02T14:42:21.213Z,98683.60
2022-10-02T14:45:00.459Z,98679.00
2022-10-02T14:47:50.020Z,98678.60
2022-10-02T14:50:28.974Z,98680.60
2022-10-02T14:53:16.988Z,98676.60
2022-10-02T14:55:49.193Z,98667.60
2022-10-02T14:58:42.264Z,98676.60
2022-10-02T15:01:21.028Z,98678.80
2022-10-02T15:04:08.836Z,98682.60
2022-10-02T15:06:59.067Z,98688.80
2022-10-02T15:09:44.156Z,98690.40
2022-10-02T15:12:23.426Z,98682.80
2022-10-02T15:14:55.297Z,98681.20
2022-10-02T15:17:40.317Z,98684.60
2022-10-02T15:20:40.792Z,98679.00
2022-10-02T15:23:12.040Z,98679.40
2022-10-02T15:25:57.546Z,98670.40
2022-10-02T15:28:43.192Z,98672.80
2022-10-02T15:31:56.787Z,98682.80
2022-10-02T15:34:36.273Z,98682.00
2022-10-02T15:37:42.464Z,98681.40
2022-10-02T15:40:18.632Z,98675.80
2022-10-02T15:42:58.384Z,98683.80
2022-10-02T15:45:34.658Z,98691.60
2022-10-02T15:48:21.706Z,98695.60
2022-10-02T15:52:00.302Z,98715.00
2022-10-02T15:54:51.521Z,98725.20
2022-10-02T15:57:23.812Z,98723.20
2022-10-02T16:00:16.049Z,98725.60
2022-10-02T16:03:11.922Z,98718.40
2022-10-02T16:05:50.551Z,98728.20
2022-10-02T16:08:47.008Z,98721.40
2022-10-02T16:11:50.787Z,98706.20
2022-10-02T16:14:38.429Z,98704.80
2022-10-02T16:17:19.991Z,98698.60
2022-10-02T16:20:02.043Z,98692.00
2022-10-02T16:22:48.755Z,98695.40
2022-10-02T16:25:36.299Z,98699.20
2022-10-02T16:28:15.001Z,98695.00
2022-10-02T16:31:16.760Z,98696.00
2022-10-02T16:34:10.830Z,98694.20
2022-10-02T16:37:06.395Z,98696.60
2022-10-02T16:39:50.745Z,98703.80
2022-10-02T16:42:48.517Z,98709.20
2022-10-02T16:45:40.737Z,98713.40
2022-10-02T16:48:13.795Z,98723.00
2022-10-02T16:51:04.778Z,98715.20
2022-10-02T16:53:53.504Z,98720.40
2022-10-02T16:56:32.576Z,98718.80
2022-10-02T16:59:11.948Z,98703.20
2022-10-02T17:02:13.141Z,98703.60
2022-10-02T17:05:29.224Z,98693.20
2022-10-02T17:08:01.308Z,98693.40
2022-10-02T17:10:40.118Z,98697.00
2022-10-02T17:13:13.597Z,98696.80
2022-10-02T17:15:59.264Z,98699.40
2022-10-02T17:18:56.766Z,98698.60
2022-10-02T17:21:38.451Z,98706.00
2022-10-02T17:24:46.159Z,98707.40
2022-10-02T17:27:42.137Z,98709.00
2022-10-02T17:30:16.622Z,98712.40
2022-10-02T17:32:45.998Z,98713.00
2022-10-02T17:35:55.487Z,98707.60
2022-10-02T17:38:24.714Z,98707.80
2022-10-02T17:41:04.165Z,98710.80
2022-10-02T17:43:45.539Z,98719.00
2022-10-02T17:46:49.104Z,98721.00
2022-10-02T17:49:51.856Z,98722.80
2022-10-02T17:53:08.252Z,98726.00
2022-10-02T17:56:29.903Z,98722.80
2022-10-02T17:59:11.116Z,98714.40
2022-10-02T18:02:01.501Z,98717.80
2022-10-02T18:04:34.205Z,98714.40
2022-10-02T18:07:38.156Z,98711.00
2022-10-02T18:10:12.580Z,98713.00
2022-10-02T18:12:54.465Z,98710.40
2022-10-02T18:15:52.668Z,98708.00
2022-10-02T18:18:29.835Z,98702.80
2022-10-02T18:21:24.320Z,98705.80
2022-10-02T18:23:59.541Z,98694.20
2022-10-02T18:27:11.142Z,98697.80
2022-10-02T18:29:48.381Z,98701.60
2022-10-02T18:32:20.399Z,98702.40
2022-10-02T18:35:06.845Z,98708.60
2022-10-02T18:38:13.923Z,98700.00
2022-10-02T18:41:01.313Z,98705.40
2022-10-02T18:44:28.853Z,98707.40
2022-10-02T18:47:25.654Z,98704.20
2022-10-02T18:50:45.773Z,98709.60
2022-10-02T18:53:39.068Z,98708.60
2022-10-02T18:56:12.701Z,98705.80
2022-10-02T18:59:01.757Z,98708.40
2022-10-02T19:01:54.779Z,98709.40
2022-10-02T19:05:32.845Z,98709.60
2022-10-02T19:08:08.162Z,98715.20
2022-10-02T19:10:34.537Z,98721.40
2022-10-02T19:13:17.310Z,98731.00
2022-10-02T19:15:46.142Z,98723.40
2022-10-02T19:18:24.821Z,98725.40
2022-10-02T19:20:55.096Z,98723.80
2022-10-02T19:23:31.971Z,98730.00
2022-10-02T19:26:33.651Z,98729.20
2022-10-02T19:29:23.924Z,98726.00
2022-10-02T19:31:50.295Z,98723.20
2022-10-02T19:34:21.440Z,98722.80
2022-10-02T19:36:51.468Z,98720.60
2022-10-02T19:39:40.712Z,98726.00
2022-10-02T19:42:12.572Z,98721.20
2022-10-02T19:44:47.512Z,98716.60
2022-10-02T19:47:42.012Z,98718.00
2022-10-02T19:50:44.103Z,98708.60
2022-10-02T19:53:41.251Z,98712.40
2022-10-02T19:56:17.524Z,98714.20
2022-10-02T19:58:43.935Z,98703.20
2022-10-02T20:01:44.596Z,98708.40
2022-10-02T20:04:17.348Z,98713.60
2022-10-02T20:06:46.628Z,98711.00
2022-10-02T20:09:23.924Z,98709.20
2022-10-02T20:12:14.416Z,98711.60
2022-10-02T20:14:49.304Z,98713.20
2022-10-02T20:17:17.316Z,98708.60
2022-10-02T20:20:07.004Z,98718.40
2022-10-02T20:22:54.385Z,98721.40
2022-10-02T20:25:28.115Z,98717.20
2022-10-02T20:28:10.936Z,98731.20
2022-10-02T20:30:41.054Z,98728.20
2022-10-02T20:33:25.704Z,98730.80
2022-10-02T20:36:05.520Z,98733.00
2022-10-02T20:38:38.487Z,98732.60
2022-10-02T20:41:28.543Z,98730.80
2022-10-02T20:44:06.516Z,98725.60
2022-10-02T20:46:32.853Z,98727.00
2022-10-02T20:49:24.029Z,98729.20
2022-10-02T20:52:10.373Z,98726.00
2022-10-02T20:54:54.829Z,98726.20
2022-10-02T20:58:02.543Z,98720.40
2022-10-02T21:01:13.567Z,98727.60
2022-10-02T21:04:06.330Z,98726.20
2022-10-02T21:06:49.982Z,98727.20
2022-10-02T21:09:43.346Z,98730.20
2022-10-02T21:12:43.290Z,98723.80
2022-10-02T21:16:03.467Z,98732.20
2022-10-02T21:18:43.272Z,98732.60
2022-10-02T21:21:53.659Z,98734.40
2022-10-02T21:24:42.297Z,98737.40
2022-10-02T21:27:37.473Z,98741.20
2022-10-02T21:30:17.686Z,98747.80
2022-10-02T21:33:28.292Z,98743.00
2022-10-02T21:35:56.209Z,98747.00
2022-10-02T21:38:59.695Z,98748.20
2022-10-02T21:41:50.431Z,98752.00
2022-10-02T21:44:34.246Z,98748.00
2022-10-02T21:47:34.176Z,98744.80
2022-10-02T21:50:37.362Z,98742.40
2022-10-02T21:53:31.230Z,98743.00
2022-10-02T21:56:30.479Z,98734.20
2022-10-02T21:59:04.043Z,98741.40
2022-10-02T22:01:36.286Z,98744.40
2022-10-02T22:04:50.637Z,98743.20
2022-10-02T22:07:43.534Z,98743.20
2022-10-02T22:10:26.657Z,98746.20
2022-10-02T22:13:38.822Z,98745.00
2022-10-02T22:16:35.627Z,98747.60
2022-10-02T22:19:30.006Z,98745.40
2022-10-02T22:22:50.665Z,98744.00
2022-10-02T22:25:36.471Z,98748.20
2022-10-02T22:28:29.121Z,98746.60
2022-10-02T22:30:55.540Z,98751.20
2022-10-02T22:33:43.715Z,98755.80
2022-10-02T22:36:23.753Z,98750.80
2022-10-02T22:39:23.735Z,98749.40
2022-10-02T22:42:10.309Z,98751.20
2022-10-02T22:44:51.495Z,98749.60
2022-10-02T22:47:17.839Z,98742.60
2022-10-02T22:49:54.184Z,98753.40
2022-10-02T22:52:41.793Z,98747.40
2022-10-02T22:55:29.655Z,98748.00
2022-10-02T22:58:17.701Z,98754.60
2022-10-02T23:01:10.377Z,98755.60
2022-10-02T23:03:54.314Z,98757.60
2022-10-02T23:06:33.361Z,98754.00
2022-10-02T23:09:26.405Z,98752.40
2022-10-02T23:11:52.782Z,98748.80
2022-10-02T23:14:56.103Z,98749.80
2022-10-02T23:17:33.622Z,98748.60
2022-10-02T23:20:13.616Z,98748.80
2022-10-02T23:23:14.216Z,98753.20
2022-10-02T23:25:50.616Z,98756.20
2022-10-02T23:28:31.775Z,98759.00
2022-10-02T23:31:41.874Z,98758.40
2022-10-02T23:34:32.316Z,98755.20
2022-10-02T23:37:04.034Z,98755.20
2022-10-02T23:40:05.568Z,98751.60
2022-10-02T23:42:40.328Z,98752.40
2022-10-02T23:45:36.733Z,98743.20
2022-10-02T23:48:05.353Z,98742.60
2022-10-02T23:51:11.481Z,98741.40
2022-10-02T23:53:46.375Z,98735.60
2022-10-02T23:56:44.306Z,98738.20
2022-10-02T23:59:35.407Z,98735.80
